createdAt,value
2018-12-17T00:00:00.291Z,3.40
2018-12-17T00:02:27.764Z,3.40
2018-12-17T00:04:55.223Z,3.40
2018-12-17T00:07:22.693Z,3.30
2018-12-17T00:09:51.659Z,3.30
2018-12-17T00:12:19.143Z,3.30
2018-12-17T00:14:47.330Z,3.30
2018-12-17T00:17:14.797Z,3.20
2018-12-17T00:19:42.355Z,3.20
2018-12-17T00:22:09.825Z,3.20
2018-12-17T00:24:37.383Z,3.30
2018-12-17T00:27:04.843Z,3.20
2018-12-17T00:29:32.307Z,3.20
2018-12-17T00:31:59.981Z,3.30
2018-12-17T00:34:27.526Z,3.20
2018-12-17T00:36:55.093Z,3.20
2018-12-17T00:39:22.706Z,3.20
2018-12-17T00:41:50.178Z,3.20
2018-12-17T00:44:17.645Z,3.30
2018-12-17T00:46:45.108Z,3.20
2018-12-17T00:49:12.607Z,3.30
2018-12-17T00:51:40.065Z,3.20
2018-12-17T00:54:07.646Z,3.30
2018-12-17T00:56:35.100Z,3.20
2018-12-17T00:59:02.656Z,3.20
2018-12-17T01:01:30.220Z,3.30
2018-12-17T01:03:57.684Z,3.30
2018-12-17T01:06:25.244Z,3.20
2018-12-17T01:08:52.888Z,3.20
2018-12-17T01:11:20.380Z,3.20
2018-12-17T01:13:47.944Z,3.30
2018-12-17T01:16:15.433Z,3.30
2018-12-17T01:18:44.022Z,3.30
2018-12-17T01:21:12.252Z,3.40
2018-12-17T01:23:39.718Z,3.30
2018-12-17T01:26:07.207Z,3.20
2018-12-17T01:28:34.674Z,3.40
2018-12-17T01:31:02.209Z,3.30
2018-12-17T01:33:29.672Z,3.40
2018-12-17T01:35:57.239Z,3.40
2018-12-17T01:38:24.713Z,3.30
2018-12-17T01:40:52.170Z,3.30
2018-12-17T01:43:19.843Z,3.30
2018-12-17T01:45:47.299Z,3.30
2018-12-17T01:48:14.762Z,3.30
2018-12-17T01:50:42.318Z,3.40
2018-12-17T01:53:09.793Z,3.40
2018-12-17T01:55:37.300Z,3.40
2018-12-17T01:58:04.759Z,3.40
2018-12-17T02:00:32.245Z,3.30
2018-12-17T02:02:59.719Z,3.40
2018-12-17T02:05:27.281Z,3.40
2018-12-17T02:07:54.733Z,3.30
2018-12-17T02:10:22.218Z,3.30
2018-12-17T02:12:50.439Z,3.30
2018-12-17T02:15:17.967Z,3.30
2018-12-17T02:17:45.452Z,3.30
2018-12-17T02:20:13.673Z,3.40
2018-12-17T02:22:41.121Z,3.40
2018-12-17T02:25:08.577Z,3.40
2018-12-17T02:27:36.034Z,3.40
2018-12-17T02:30:04.702Z,3.50
2018-12-17T02:32:32.930Z,3.40
2018-12-17T02:35:00.412Z,3.40
2018-12-17T02:37:27.870Z,3.50
2018-12-17T02:39:55.438Z,3.50
2018-12-17T02:42:22.909Z,3.40
2018-12-17T02:44:50.455Z,3.40
2018-12-17T02:47:18.033Z,3.50
2018-12-17T02:49:46.267Z,3.50
2018-12-17T02:52:13.756Z,3.50
2018-12-17T02:54:41.235Z,3.50
2018-12-17T02:57:08.793Z,3.50
2018-12-17T02:59:36.260Z,3.50
2018-12-17T03:02:03.714Z,3.50
2018-12-17T03:04:31.210Z,3.40
2018-12-17T03:06:59.461Z,3.60
2018-12-17T03:09:27.104Z,3.50
2018-12-17T03:11:54.483Z,3.50
2018-12-17T03:14:22.060Z,3.50
2018-12-17T03:16:50.285Z,3.60
2018-12-17T03:19:17.757Z,3.50
2018-12-17T03:21:45.257Z,3.50
2018-12-17T03:24:12.737Z,3.50
2018-12-17T03:26:40.973Z,3.60
2018-12-17T03:29:08.453Z,3.50
2018-12-17T03:31:35.906Z,3.50
2018-12-17T03:34:04.278Z,3.70
2018-12-17T03:36:31.740Z,3.70
2018-12-17T03:38:59.202Z,3.60
2018-12-17T03:41:26.685Z,3.70
2018-12-17T03:43:54.142Z,3.70
2018-12-17T03:46:21.611Z,3.70
2018-12-17T03:48:49.170Z,3.70
2018-12-17T03:51:16.741Z,3.70
2018-12-17T03:53:44.208Z,3.80
2018-12-17T03:56:11.659Z,3.80
2018-12-17T03:58:39.127Z,3.90
2018-12-17T04:01:06.639Z,3.80
2018-12-17T04:03:34.152Z,4.00
2018-12-17T04:06:01.623Z,3.90
2018-12-17T04:08:29.113Z,4.00
2018-12-17T04:10:57.361Z,3.90
2018-12-17T04:13:24.822Z,3.90
2018-12-17T04:15:52.294Z,3.90
2018-12-17T04:18:20.536Z,4.00
2018-12-17T04:20:48.025Z,4.00
2018-12-17T04:23:15.490Z,4.00
2018-12-17T04:25:42.956Z,4.00
2018-12-17T04:28:10.426Z,4.10
2018-12-17T04:30:38.681Z,4.10
2018-12-17T04:33:06.144Z,4.10
2018-12-17T04:35:33.641Z,4.10
2018-12-17T04:38:01.870Z,4.20
2018-12-17T04:40:29.342Z,4.20
2018-12-17T04:42:56.917Z,4.20
2018-12-17T04:45:24.470Z,4.20
2018-12-17T04:47:51.941Z,4.20
2018-12-17T04:50:19.409Z,4.20
2018-12-17T04:52:46.878Z,4.20
2018-12-17T04:55:14.420Z,4.20
2018-12-17T04:57:41.888Z,4.30
2018-12-17T05:00:09.349Z,4.30
2018-12-17T05:02:36.805Z,4.40
2018-12-17T05:05:04.377Z,4.40
2018-12-17T05:07:31.869Z,4.30
2018-12-17T05:10:00.110Z,4.40
2018-12-17T05:12:27.571Z,4.40
2018-12-17T05:14:55.147Z,4.40
2018-12-17T05:17:22.609Z,4.50
2018-12-17T05:19:50.067Z,4.50
2018-12-17T05:22:19.030Z,4.50
2018-12-17T05:24:46.498Z,4.50
2018-12-17T05:27:13.976Z,4.60
2018-12-17T05:29:41.442Z,4.60
2018-12-17T05:32:08.905Z,4.60
2018-12-17T05:34:36.367Z,4.60
2018-12-17T05:37:04.617Z,4.60
2018-12-17T05:39:32.073Z,4.60
2018-12-17T05:41:59.573Z,4.70
2018-12-17T05:44:27.032Z,4.70
2018-12-17T05:46:54.489Z,4.60
2018-12-17T05:49:21.968Z,4.70
2018-12-17T05:51:49.525Z,4.70
2018-12-17T05:54:17.755Z,4.70
2018-12-17T05:56:45.225Z,4.70
2018-12-17T05:59:12.678Z,4.80
2018-12-17T06:01:40.128Z,4.70
2018-12-17T06:04:07.592Z,4.80
2018-12-17T06:06:35.880Z,4.90
2018-12-17T06:09:04.519Z,4.80
2018-12-17T06:11:31.982Z,4.70
2018-12-17T06:13:59.450Z,4.90
2018-12-17T06:16:26.916Z,4.90
2018-12-17T06:18:54.460Z,4.80
2018-12-17T06:21:21.910Z,4.80
2018-12-17T06:23:49.377Z,4.90
2018-12-17T06:26:16.847Z,4.80
2018-12-17T06:28:44.321Z,4.90
2018-12-17T06:31:11.780Z,4.90
2018-12-17T06:33:39.249Z,4.90
2018-12-17T06:36:06.799Z,5.00
2018-12-17T06:38:34.367Z,5.00
2018-12-17T06:41:01.947Z,5.00
2018-12-17T06:43:29.506Z,4.90
2018-12-17T06:45:56.965Z,5.10
2018-12-17T06:48:24.518Z,5.10
2018-12-17T06:50:52.081Z,5.20
2018-12-17T06:53:19.548Z,5.10
2018-12-17T06:55:47.773Z,5.20
2018-12-17T06:58:15.233Z,5.20
2018-12-17T07:00:42.722Z,5.20
2018-12-17T07:03:10.201Z,5.30
2018-12-17T07:05:37.669Z,5.30
2018-12-17T07:08:05.235Z,5.20
2018-12-17T07:10:32.785Z,5.20
2018-12-17T07:13:00.359Z,5.30
2018-12-17T07:15:27.823Z,5.30
2018-12-17T07:17:55.278Z,5.30
2018-12-17T07:20:22.739Z,5.40
2018-12-17T07:22:50.191Z,5.50
2018-12-17T07:25:17.686Z,5.50
2018-12-17T07:27:45.238Z,5.60
2018-12-17T07:30:12.806Z,5.50
2018-12-17T07:32:41.053Z,5.60
2018-12-17T07:35:08.528Z,5.50
2018-12-17T07:37:35.972Z,5.40
2018-12-17T07:40:04.722Z,5.40
2018-12-17T07:42:32.943Z,5.60
2018-12-17T07:45:00.402Z,5.60
2018-12-17T07:47:27.861Z,5.70
2018-12-17T07:49:55.316Z,5.60
2018-12-17T07:52:22.756Z,5.70
2018-12-17T07:54:51.006Z,5.60
2018-12-17T07:57:18.470Z,5.60
2018-12-17T07:59:46.257Z,5.70
2018-12-17T08:02:14.506Z,5.90
2018-12-17T08:04:41.988Z,5.90
2018-12-17T08:07:09.537Z,6.00
2018-12-17T08:09:36.981Z,6.00
2018-12-17T08:12:05.205Z,6.00
2018-12-17T08:14:33.435Z,6.00
2018-12-17T08:17:00.895Z,6.00
2018-12-17T08:19:29.079Z,6.10
2018-12-17T08:21:55.938Z,6.10
2018-12-17T08:24:23.503Z,6.10
2018-12-17T08:26:51.090Z,6.20
2018-12-17T08:29:18.553Z,6.20
2018-12-17T08:31:46.780Z,6.20
2018-12-17T08:34:14.242Z,6.20
2018-12-17T08:36:41.752Z,6.30
2018-12-17T08:39:09.214Z,6.30
2018-12-17T08:41:40.057Z,6.40
2018-12-17T08:44:08.288Z,6.40
2018-12-17T08:46:35.745Z,6.40
2018-12-17T08:49:03.650Z,6.50
2018-12-17T08:51:31.100Z,6.40
2018-12-17T08:53:58.579Z,6.30
2018-12-17T08:56:26.141Z,6.40
2018-12-17T08:58:53.703Z,6.30
2018-12-17T09:01:21.359Z,6.50
2018-12-17T09:03:49.495Z,6.60
2018-12-17T09:06:16.947Z,6.60
2018-12-17T09:08:45.168Z,6.60
2018-12-17T09:11:12.671Z,6.60
2018-12-17T09:13:40.892Z,6.70
2018-12-17T09:16:08.349Z,6.70
2018-12-17T09:18:35.834Z,6.70
2018-12-17T09:21:04.841Z,6.70
2018-12-17T09:23:32.313Z,6.80
2018-12-17T09:25:59.777Z,6.80
2018-12-17T09:28:27.234Z,6.80
2018-12-17T09:30:54.680Z,6.80
2018-12-17T09:33:22.145Z,6.80
2018-12-17T09:35:49.606Z,6.90
2018-12-17T09:38:17.078Z,6.90
2018-12-17T09:40:44.527Z,6.90
2018-12-17T09:43:11.994Z,6.80
2018-12-17T09:45:39.452Z,7.00
2018-12-17T09:48:07.029Z,7.00
2018-12-17T09:50:34.489Z,7.00
2018-12-17T09:53:01.948Z,7.10
2018-12-17T09:55:29.616Z,7.20
2018-12-17T09:57:57.085Z,7.00
2018-12-17T10:00:25.633Z,7.00
2018-12-17T10:02:52.904Z,7.10
2018-12-17T10:05:20.358Z,7.00
2018-12-17T10:07:47.807Z,7.00
2018-12-17T10:10:15.261Z,7.10
2018-12-17T10:12:42.708Z,7.00
2018-12-17T10:15:10.938Z,7.00
2018-12-17T10:17:38.406Z,7.00
2018-12-17T10:20:05.882Z,7.10
2018-12-17T10:22:33.350Z,7.20
2018-12-17T10:25:00.900Z,7.00
2018-12-17T10:27:28.358Z,7.10
2018-12-17T10:29:55.829Z,6.90
2018-12-17T10:32:23.302Z,7.00
2018-12-17T10:34:50.845Z,7.20
2018-12-17T10:37:18.311Z,7.20
2018-12-17T10:39:45.761Z,7.10
2018-12-17T10:42:13.347Z,7.20
2018-12-17T10:44:40.804Z,7.20
2018-12-17T10:47:08.385Z,7.10
2018-12-17T10:49:35.836Z,7.20
2018-12-17T10:52:04.296Z,7.30
2018-12-17T10:54:31.766Z,7.20
2018-12-17T10:56:59.340Z,7.30
2018-12-17T10:59:26.898Z,7.30
2018-12-17T11:01:54.360Z,7.30
2018-12-17T11:04:21.835Z,7.20
2018-12-17T11:06:49.302Z,7.30
2018-12-17T11:09:16.846Z,7.30
2018-12-17T11:11:44.299Z,7.20
2018-12-17T11:14:11.875Z,7.30
2018-12-17T11:16:39.424Z,7.40
2018-12-17T11:19:06.868Z,7.20
2018-12-17T11:21:34.331Z,7.20
2018-12-17T11:24:01.784Z,7.20
2018-12-17T11:26:29.223Z,7.20
2018-12-17T11:28:56.689Z,7.20
2018-12-17T11:31:24.145Z,7.20
2018-12-17T11:33:52.370Z,7.20
2018-12-17T11:36:19.849Z,7.20
2018-12-17T11:38:47.417Z,7.30
2018-12-17T11:41:14.885Z,7.30
2018-12-17T11:43:43.929Z,7.30
2018-12-17T11:46:10.718Z,7.30
2018-12-17T11:48:38.174Z,7.30
2018-12-17T11:51:05.629Z,7.30
2018-12-17T11:53:33.216Z,7.30
2018-12-17T11:56:00.679Z,7.30
2018-12-17T11:58:28.439Z,7.20
2018-12-17T12:00:57.411Z,7.30
2018-12-17T12:03:24.900Z,7.30
2018-12-17T12:05:53.848Z,7.20
2018-12-17T12:08:21.310Z,7.20
2018-12-17T12:10:48.762Z,7.20
2018-12-17T12:13:16.286Z,7.20
2018-12-17T12:15:43.750Z,7.40
2018-12-17T12:18:11.235Z,7.40
2018-12-17T12:20:39.483Z,7.50
2018-12-17T12:23:06.937Z,7.50
2018-12-17T12:25:34.395Z,7.60
2018-12-17T12:28:01.861Z,7.70
2018-12-17T12:30:29.318Z,7.70
2018-12-17T12:32:56.772Z,7.70
2018-12-17T12:35:24.225Z,7.60
2018-12-17T12:37:51.692Z,7.60
2018-12-17T12:40:19.163Z,7.50
2018-12-17T12:42:51.561Z,7.60
2018-12-17T12:45:14.203Z,7.60
2018-12-17T12:47:41.665Z,7.60
2018-12-17T12:50:09.126Z,7.60
2018-12-17T12:52:36.684Z,7.60
2018-12-17T12:55:04.302Z,7.50
2018-12-17T12:57:31.741Z,7.50
2018-12-17T12:59:59.960Z,7.60
2018-12-17T13:02:27.426Z,7.50
2018-12-17T13:04:54.880Z,7.70
2018-12-17T13:07:22.383Z,7.70
2018-12-17T13:09:49.929Z,7.60
2018-12-17T13:12:17.511Z,7.60
2018-12-17T13:14:45.735Z,7.60
2018-12-17T13:17:18.796Z,7.60
2018-12-17T13:19:47.023Z,7.70
2018-12-17T13:22:14.518Z,7.70
2018-12-17T13:24:41.990Z,7.80
2018-12-17T13:27:09.444Z,7.80
2018-12-17T13:29:36.936Z,7.80
2018-12-17T13:32:05.151Z,7.90
2018-12-17T13:34:32.631Z,7.80
2018-12-17T13:37:01.190Z,7.80
2018-12-17T13:39:29.290Z,7.80
2018-12-17T13:41:56.750Z,7.80
2018-12-17T13:44:24.215Z,7.90
2018-12-17T13:46:51.853Z,7.80
2018-12-17T13:49:19.313Z,7.80
2018-12-17T13:51:52.494Z,7.80
2018-12-17T13:54:20.826Z,7.70
2018-12-17T13:56:48.280Z,7.70
2018-12-17T13:59:15.843Z,7.70
2018-12-17T14:01:43.309Z,7.70
2018-12-17T14:04:10.761Z,7.70
2018-12-17T14:06:38.229Z,7.80
2018-12-17T14:09:05.694Z,7.80
2018-12-17T14:11:33.161Z,7.80
2018-12-17T14:14:00.621Z,7.80
2018-12-17T14:16:33.753Z,7.90
2018-12-17T14:19:07.711Z,7.80
2018-12-17T14:21:40.882Z,7.80
2018-12-17T14:24:08.346Z,7.70
2018-12-17T14:26:35.797Z,7.60
2018-12-17T14:29:03.712Z,7.50
2018-12-17T14:31:31.279Z,7.60
2018-12-17T14:33:58.743Z,7.60
2018-12-17T14:36:27.694Z,7.60
2018-12-17T14:38:55.150Z,7.60
2018-12-17T14:41:22.606Z,7.50
2018-12-17T14:43:50.073Z,7.50
2018-12-17T14:46:17.635Z,7.50
2018-12-17T14:48:45.073Z,7.50
2018-12-17T14:51:13.325Z,7.50
2018-12-17T14:53:40.784Z,7.50
2018-12-17T14:56:08.340Z,7.50
2018-12-17T14:58:35.797Z,7.60
2018-12-17T15:01:04.811Z,7.50
2018-12-17T15:03:32.380Z,7.50
2018-12-17T15:05:59.850Z,7.50
2018-12-17T15:08:27.317Z,7.50
2018-12-17T15:10:54.783Z,7.50
2018-12-17T15:13:23.001Z,7.40
2018-12-17T15:15:50.488Z,7.40
2018-12-17T15:18:17.943Z,7.40
2018-12-17T15:20:45.411Z,7.30
2018-12-17T15:23:12.897Z,7.40
2018-12-17T15:25:40.361Z,7.30
2018-12-17T15:28:08.041Z,7.30
2018-12-17T15:30:35.488Z,7.30
2018-12-17T15:33:05.365Z,7.20
2018-12-17T15:35:32.847Z,7.20
2018-12-17T15:38:00.306Z,7.20
2018-12-17T15:40:27.885Z,7.20
2018-12-17T15:42:55.448Z,7.10
2018-12-17T15:45:23.006Z,7.10
2018-12-17T15:47:50.479Z,7.00
2018-12-17T15:50:18.757Z,6.90
2018-12-17T15:52:46.220Z,6.90
2018-12-17T15:55:13.677Z,6.90
2018-12-17T15:57:41.136Z,6.90
2018-12-17T16:00:08.698Z,6.90
2018-12-17T16:02:36.313Z,6.90
2018-12-17T16:05:03.763Z,6.90
2018-12-17T16:07:32.011Z,6.80
2018-12-17T16:09:59.474Z,6.70
2018-12-17T16:12:26.929Z,6.70
2018-12-17T16:14:54.505Z,6.70
2018-12-17T16:17:21.983Z,6.70
2018-12-17T16:19:50.253Z,6.60
2018-12-17T16:22:18.477Z,6.50
2018-12-17T16:24:45.974Z,6.50
2018-12-17T16:27:19.188Z,6.50
2018-12-17T16:29:41.033Z,6.50
2018-12-17T16:32:09.274Z,6.50
2018-12-17T16:34:36.730Z,6.40
2018-12-17T16:37:04.207Z,6.50
2018-12-17T16:39:31.672Z,6.50
2018-12-17T16:41:59.153Z,6.50
2018-12-17T16:44:27.416Z,6.50
2018-12-17T16:46:56.379Z,6.40
2018-12-17T16:49:23.844Z,6.40
2018-12-17T16:51:51.345Z,6.40
2018-12-17T16:54:18.899Z,6.40
2018-12-17T16:56:46.458Z,6.40
2018-12-17T16:59:13.924Z,6.30
2018-12-17T17:01:41.490Z,6.40
2018-12-17T17:04:09.049Z,6.30
2018-12-17T17:06:37.057Z,6.30
2018-12-17T17:09:05.405Z,6.20
2018-12-17T17:11:32.866Z,6.20
2018-12-17T17:14:00.327Z,6.20
2018-12-17T17:16:27.790Z,6.20
2018-12-17T17:18:55.259Z,6.10
2018-12-17T17:21:22.714Z,6.10
2018-12-17T17:23:50.299Z,6.10
2018-12-17T17:26:17.757Z,6.10
2018-12-17T17:28:46.327Z,6.10
2018-12-17T17:31:13.907Z,6.10
2018-12-17T17:33:41.353Z,6.00
2018-12-17T17:36:08.845Z,6.00
2018-12-17T17:38:36.290Z,6.00
2018-12-17T17:41:04.522Z,6.00
2018-12-17T17:43:31.988Z,6.00
2018-12-17T17:45:59.493Z,6.00
2018-12-17T17:48:27.048Z,5.90
2018-12-17T17:50:54.532Z,5.90
2018-12-17T17:53:22.747Z,5.90
2018-12-17T17:55:50.198Z,5.90
2018-12-17T17:58:17.671Z,5.90
2018-12-17T18:00:45.165Z,5.90
2018-12-17T18:03:12.624Z,5.80
2018-12-17T18:05:40.098Z,5.80
2018-12-17T18:08:07.673Z,5.70
2018-12-17T18:10:35.337Z,5.70
2018-12-17T18:13:03.722Z,5.80
2018-12-17T18:15:31.188Z,5.70
2018-12-17T18:17:58.744Z,5.60
2018-12-17T18:20:26.205Z,5.60
2018-12-17T18:22:53.774Z,5.50
2018-12-17T18:25:21.243Z,5.50
2018-12-17T18:27:48.688Z,5.60
2018-12-17T18:30:16.163Z,5.50
2018-12-17T18:32:43.718Z,5.60
2018-12-17T18:35:11.266Z,5.60
2018-12-17T18:37:38.882Z,5.70
2018-12-17T18:40:07.081Z,5.50
2018-12-17T18:42:34.539Z,5.40
2018-12-17T18:45:01.998Z,5.30
2018-12-17T18:47:29.480Z,5.20
2018-12-17T18:49:56.993Z,5.20
2018-12-17T18:52:25.048Z,5.10
2018-12-17T18:54:52.518Z,5.00
2018-12-17T18:57:19.981Z,5.00
2018-12-17T18:59:47.441Z,5.00
2018-12-17T19:02:15.005Z,4.90
2018-12-17T19:04:42.449Z,5.00
2018-12-17T19:07:09.896Z,4.90
2018-12-17T19:09:37.436Z,4.90
2018-12-17T19:12:04.877Z,4.90
2018-12-17T19:14:33.115Z,4.90
2018-12-17T19:17:00.797Z,4.80
2018-12-17T19:19:28.356Z,4.90
2018-12-17T19:21:55.807Z,4.80
2018-12-17T19:24:23.265Z,4.80
2018-12-17T19:26:50.714Z,4.80
2018-12-17T19:29:18.177Z,4.80
2018-12-17T19:31:45.684Z,4.80
2018-12-17T19:34:13.929Z,4.80
2018-12-17T19:36:41.401Z,4.80
2018-12-17T19:39:08.881Z,4.80
2018-12-17T19:41:37.193Z,4.60
2018-12-17T19:44:04.639Z,4.60
2018-12-17T19:46:32.133Z,4.60
2018-12-17T19:48:59.676Z,4.60
2018-12-17T19:51:27.105Z,4.60
2018-12-17T19:53:55.406Z,4.50
2018-12-17T19:56:22.920Z,4.50
2018-12-17T19:58:50.382Z,4.50
2018-12-17T20:01:17.819Z,4.50
2018-12-17T20:03:45.290Z,4.50
2018-12-17T20:06:12.748Z,4.50
2018-12-17T20:08:40.200Z,4.60
2018-12-17T20:11:07.650Z,4.50
2018-12-17T20:13:35.894Z,4.50
2018-12-17T20:16:04.562Z,4.50
2018-12-17T20:18:32.021Z,4.50
2018-12-17T20:20:59.471Z,4.50
2018-12-17T20:23:26.926Z,4.50
2018-12-17T20:25:54.393Z,4.40
2018-12-17T20:28:21.828Z,4.50
2018-12-17T20:30:49.292Z,4.50
2018-12-17T20:33:16.737Z,4.50
2018-12-17T20:35:44.951Z,4.50
2018-12-17T20:38:14.199Z,4.50
2018-12-17T20:40:42.500Z,4.50
2018-12-17T20:43:10.047Z,4.50
2018-12-17T20:45:37.490Z,4.50
2018-12-17T20:48:04.948Z,4.50
2018-12-17T20:50:32.388Z,4.50
2018-12-17T20:52:59.851Z,4.50
2018-12-17T20:55:30.607Z,4.50
2018-12-17T20:57:54.759Z,4.50
2018-12-17T21:00:22.985Z,4.50
2018-12-17T21:02:50.412Z,4.50
2018-12-17T21:05:17.857Z,4.50
2018-12-17T21:07:46.073Z,4.50
2018-12-17T21:10:13.519Z,4.50
2018-12-17T21:12:40.989Z,4.50
2018-12-17T21:15:08.444Z,4.50
2018-12-17T21:17:35.898Z,4.50
2018-12-17T21:20:03.993Z,4.40
2018-12-17T21:22:31.450Z,4.50
2018-12-17T21:24:58.918Z,4.50
2018-12-17T21:27:27.159Z,4.40
2018-12-17T21:29:55.382Z,4.40
2018-12-17T21:32:22.858Z,4.40
2018-12-17T21:34:50.299Z,4.40
2018-12-17T21:37:17.750Z,4.40
2018-12-17T21:39:45.196Z,4.40
2018-12-17T21:42:13.403Z,4.50
2018-12-17T21:44:40.857Z,4.40
2018-12-17T21:47:08.309Z,4.50
2018-12-17T21:49:35.751Z,4.50
2018-12-17T21:52:04.702Z,4.50
2018-12-17T21:54:32.155Z,4.50
2018-12-17T21:56:59.640Z,4.60
2018-12-17T21:59:27.099Z,4.70
2018-12-17T22:01:54.543Z,4.70
2018-12-17T22:04:22.003Z,4.70
2018-12-17T22:06:49.470Z,4.70
2018-12-17T22:09:16.922Z,4.80
2018-12-17T22:11:44.372Z,4.80
2018-12-17T22:14:11.831Z,4.80
2018-12-17T22:16:40.035Z,4.90
2018-12-17T22:19:07.480Z,4.80
2018-12-17T22:21:34.923Z,4.80
2018-12-17T22:24:02.377Z,4.90
2018-12-17T22:26:29.812Z,4.90
2018-12-17T22:28:57.266Z,4.90
2018-12-17T22:31:24.725Z,4.90
2018-12-17T22:33:52.173Z,5.00
2018-12-17T22:36:19.629Z,4.90
2018-12-17T22:38:47.074Z,4.90
2018-12-17T22:41:14.556Z,4.90
2018-12-17T22:43:42.029Z,5.00
2018-12-17T22:46:09.473Z,4.90
2018-12-17T22:48:36.932Z,4.80
2018-12-17T22:51:04.387Z,4.90
2018-12-17T22:53:31.826Z,4.80
2018-12-17T22:55:59.294Z,4.80
2018-12-17T22:58:26.759Z,4.80
2018-12-17T23:00:54.989Z,4.80
2018-12-17T23:03:26.307Z,4.80
2018-12-17T23:05:50.664Z,4.70
2018-12-17T23:08:18.097Z,4.70
2018-12-17T23:10:57.333Z,4.80
2018-12-17T23:13:36.532Z,4.80
2018-12-17T23:16:15.762Z,4.70
2018-12-17T23:18:42.724Z,4.70
2018-12-17T23:21:10.179Z,4.80
2018-12-17T23:23:37.636Z,4.80
2018-12-17T23:26:05.096Z,4.70
2018-12-17T23:28:32.563Z,4.80
2018-12-17T23:31:00.068Z,4.80
2018-12-17T23:33:32.828Z,4.80
2018-12-17T23:35:54.964Z,4.80
2018-12-17T23:38:22.392Z,4.80
2018-12-17T23:40:50.610Z,4.80
2018-12-17T23:43:18.081Z,4.80
2018-12-17T23:45:45.550Z,4.80
2018-12-17T23:48:13.430Z,4.90
2018-12-17T23:50:40.900Z,4.80
2018-12-17T23:53:08.342Z,4.80
2018-12-17T23:55:35.814Z,4.90
2018-12-17T23:58:04.586Z,5.00
